Aeroporto :







RITROVATECI SU...

 
LOGIN :

Iscrizione | Disclaimer

   EN    FR    IT 

 









Sommario :    VFR   VFR Marginale   IFR   IFR Intensivo   IFR Molto Intensivo
Visibilità : 
Base nubi : 
>= 8 km
>= 3000ft
5 / 8 km
1000 / 3000 ft
1500m / 5 km
500 / 1000 ft
800 / 1500m
200 / 500 ft
< 800m
< 200 ft
Simboli :   Temporali  Nebbia  Neve Forte  Precipitazioni Forti  Vento > 20 kt






- Altitudine del aeroporto : 228 ft


KFSO - Franklin County State

ULTIMO METAR :
  • 142055Z AUTO 18007G17KT 7SM -SN SCT044 00/M05 A3022 RMK AO2 T10051053

METARs OBSOLETI :
  • 142035Z AUTO 18007KT 150V210 10SM BKN044 BKN049 00/M06 A3022 RMK AO2 T10051056
  • 142016Z AUTO 18011G15KT 10SM BKN042 BKN049 00/M06 A3022 RMK AO2 T10021064
  • 141956Z AUTO 17012G18KT 10SM BKN044 00/M06 A3023 RMK AO2 T10021065
  • 141936Z AUTO 18010G16KT 10SM SCT046 00/M07 A3023 RMK AO2 T00001075
  • 141915Z AUTO 19011G17KT 160V230 10SM BKN041 00/M08 A3023 RMK AO2 T00001083
  • 141856Z AUTO 18009G17KT 160V220 10SM SCT039 SCT045 00/M09 A3024 RMK AO2 T10021090
  • 141835Z AUTO 18011G18KT 10SM BKN039 BKN045 00/M10 A3025 RMK AO2 T10051100

TAF N/A



MetMap, La meteo Aeronautica in un colpo d'occhio ! - Copyright ORBIFLY Dicembre 2007 - Disclaimer

ORBIFLY MET'MAP TEAM :

Programmazione e sviluppo : Alexandra Zaïnal
Concezione e sviluppo : Baudouin d'Aumeries
Co-Programmazione e sviluppo : Marc-Olivier Méhu
Supporto tecnico e logistico : Manuel Goepfert
Aiuto per la traduzione : Arnaldo La Scala

Contatto : metmap@orbifly.com




FONTI E CREDITI :

   NOAA